sensor_id;sensor_type;location;lat;lon;timestamp;P1;durP1;ratioP1;P2;durP2;ratioP2
76125;SDS011;65174;48.138;21.002;2023-08-06T00:02:41;7.50;;;5.93;;
76125;SDS011;65174;48.138;21.002;2023-08-06T00:05:43;7.30;;;6.00;;
76125;SDS011;65174;48.138;21.002;2023-08-06T00:08:45;9.40;;;6.47;;
76125;SDS011;65174;48.138;21.002;2023-08-06T00:11:47;9.95;;;6.97;;
76125;SDS011;65174;48.138;21.002;2023-08-06T00:14:50;9.45;;;6.53;;
76125;SDS011;65174;48.138;21.002;2023-08-06T00:17:52;8.32;;;6.32;;
76125;SDS011;65174;48.138;21.002;2023-08-06T00:20:54;9.87;;;7.20;;
76125;SDS011;65174;48.138;21.002;2023-08-06T00:23:56;10.35;;;7.43;;
76125;SDS011;65174;48.138;21.002;2023-08-06T00:26:59;10.23;;;7.28;;
76125;SDS011;65174;48.138;21.002;2023-08-06T00:30:01;11.18;;;7.63;;
76125;SDS011;65174;48.138;21.002;2023-08-06T00:33:03;10.93;;;8.02;;
76125;SDS011;65174;48.138;21.002;2023-08-06T00:36:06;9.63;;;7.37;;
76125;SDS011;65174;48.138;21.002;2023-08-06T00:39:08;10.90;;;7.25;;
76125;SDS011;65174;48.138;21.002;2023-08-06T00:42:11;12.35;;;7.15;;
76125;SDS011;65174;48.138;21.002;2023-08-06T00:45:13;10.15;;;6.97;;
76125;SDS011;65174;48.138;21.002;2023-08-06T00:48:15;10.93;;;6.97;;
76125;SDS011;65174;48.138;21.002;2023-08-06T00:51:17;8.87;;;6.30;;
76125;SDS011;65174;48.138;21.002;2023-08-06T00:54:20;8.25;;;6.35;;
76125;SDS011;65174;48.138;21.002;2023-08-06T00:57:24;11.45;;;5.72;;
76125;SDS011;65174;48.138;21.002;2023-08-06T01:00:27;12.48;;;6.63;;
76125;SDS011;65174;48.138;21.002;2023-08-06T01:03:29;8.55;;;6.35;;
76125;SDS011;65174;48.138;21.002;2023-08-06T01:06:37;9.70;;;6.70;;
76125;SDS011;65174;48.138;21.002;2023-08-06T01:16:20;10.82;;;6.35;;
76125;SDS011;65174;48.138;21.002;2023-08-06T01:19:23;8.38;;;5.95;;
76125;SDS011;65174;48.138;21.002;2023-08-06T01:22:25;8.90;;;6.50;;
76125;SDS011;65174;48.138;21.002;2023-08-06T01:25:29;7.85;;;6.05;;
76125;SDS011;65174;48.138;21.002;2023-08-06T01:32:04;7.53;;;6.07;;
76125;SDS011;65174;48.138;21.002;2023-08-06T01:35:07;7.53;;;5.55;;
76125;SDS011;65174;48.138;21.002;2023-08-06T01:38:11;7.83;;;5.07;;
76125;SDS011;65174;48.138;21.002;2023-08-06T01:41:13;7.90;;;5.32;;
76125;SDS011;65174;48.138;21.002;2023-08-06T01:44:15;8.23;;;5.57;;
76125;SDS011;65174;48.138;21.002;2023-08-06T01:47:17;6.22;;;5.35;;
76125;SDS011;65174;48.138;21.002;2023-08-06T01:50:19;9.60;;;5.40;;
76125;SDS011;65174;48.138;21.002;2023-08-06T01:53:21;6.57;;;5.03;;
76125;SDS011;65174;48.138;21.002;2023-08-06T01:56:23;7.53;;;4.78;;
76125;SDS011;65174;48.138;21.002;2023-08-06T01:59:25;6.85;;;4.82;;
76125;SDS011;65174;48.138;21.002;2023-08-06T02:02:29;7.85;;;5.25;;
76125;SDS011;65174;48.138;21.002;2023-08-06T02:06:19;7.38;;;4.72;;
76125;SDS011;65174;48.138;21.002;2023-08-06T02:09:20;6.43;;;4.47;;
76125;SDS011;65174;48.138;21.002;2023-08-06T02:12:22;7.15;;;4.80;;
76125;SDS011;65174;48.138;21.002;2023-08-06T02:15:24;10.82;;;5.20;;
76125;SDS011;65174;48.138;21.002;2023-08-06T02:18:26;6.85;;;5.00;;
76125;SDS011;65174;48.138;21.002;2023-08-06T02:21:28;6.10;;;4.38;;
76125;SDS011;65174;48.138;21.002;2023-08-06T02:24:30;6.43;;;4.50;;
76125;SDS011;65174;48.138;21.002;2023-08-06T02:27:32;6.80;;;5.18;;
76125;SDS011;65174;48.138;21.002;2023-08-06T02:30:34;7.95;;;5.20;;
76125;SDS011;65174;48.138;21.002;2023-08-06T02:33:36;7.50;;;5.07;;
76125;SDS011;65174;48.138;21.002;2023-08-06T02:36:38;8.68;;;5.85;;
76125;SDS011;65174;48.138;21.002;2023-08-06T02:39:40;10.07;;;6.80;;
76125;SDS011;65174;48.138;21.002;2023-08-06T02:42:42;10.00;;;6.40;;
76125;SDS011;65174;48.138;21.002;2023-08-06T02:45:45;10.13;;;5.53;;
76125;SDS011;65174;48.138;21.002;2023-08-06T02:48:50;8.80;;;6.10;;
76125;SDS011;65174;48.138;21.002;2023-08-06T02:51:52;8.15;;;5.55;;
76125;SDS011;65174;48.138;21.002;2023-08-06T02:54:55;8.03;;;5.73;;
76125;SDS011;65174;48.138;21.002;2023-08-06T02:57:57;9.02;;;5.95;;
76125;SDS011;65174;48.138;21.002;2023-08-06T03:01:05;9.68;;;7.38;;
76125;SDS011;65174;48.138;21.002;2023-08-06T03:04:22;8.13;;;5.93;;
76125;SDS011;65174;48.138;21.002;2023-08-06T03:07:24;7.97;;;6.00;;
76125;SDS011;65174;48.138;21.002;2023-08-06T03:10:31;7.10;;;5.07;;
76125;SDS011;65174;48.138;21.002;2023-08-06T03:13:36;7.50;;;5.35;;
76125;SDS011;65174;48.138;21.002;2023-08-06T03:16:38;6.97;;;5.28;;
76125;SDS011;65174;48.138;21.002;2023-08-06T03:19:40;7.00;;;4.78;;
76125;SDS011;65174;48.138;21.002;2023-08-06T03:26:45;4.60;;;3.37;;
76125;SDS011;65174;48.138;21.002;2023-08-06T03:29:48;4.47;;;3.17;;
76125;SDS011;65174;48.138;21.002;2023-08-06T03:32:54;3.67;;;3.05;;
76125;SDS011;65174;48.138;21.002;2023-08-06T03:35:56;3.83;;;2.67;;
76125;SDS011;65174;48.138;21.002;2023-08-06T03:38:59;2.28;;;1.83;;
76125;SDS011;65174;48.138;21.002;2023-08-06T03:42:02;1.53;;;1.43;;
76125;SDS011;65174;48.138;21.002;2023-08-06T03:45:05;0.80;;;0.68;;
76125;SDS011;65174;48.138;21.002;2023-08-06T03:48:08;0.75;;;0.55;;
76125;SDS011;65174;48.138;21.002;2023-08-06T03:51:10;1.70;;;0.60;;
76125;SDS011;65174;48.138;21.002;2023-08-06T03:54:13;0.60;;;0.50;;
76125;SDS011;65174;48.138;21.002;2023-08-06T03:57:15;6.43;;;0.50;;
76125;SDS011;65174;48.138;21.002;2023-08-06T04:00:17;0.30;;;0.28;;
76125;SDS011;65174;48.138;21.002;2023-08-06T04:03:24;0.50;;;0.40;;
76125;SDS011;65174;48.138;21.002;2023-08-06T04:06:26;0.65;;;0.50;;
76125;SDS011;65174;48.138;21.002;2023-08-06T04:09:28;1.00;;;0.50;;
76125;SDS011;65174;48.138;21.002;2023-08-06T04:12:31;1.13;;;0.30;;
76125;SDS011;65174;48.138;21.002;2023-08-06T04:15:34;0.35;;;0.30;;
76125;SDS011;65174;48.138;21.002;2023-08-06T04:18:36;0.60;;;0.30;;
76125;SDS011;65174;48.138;21.002;2023-08-06T04:21:38;0.60;;;0.50;;
76125;SDS011;65174;48.138;21.002;2023-08-06T04:24:40;0.80;;;0.60;;
76125;SDS011;65174;48.138;21.002;2023-08-06T04:27:42;0.50;;;0.40;;
76125;SDS011;65174;48.138;21.002;2023-08-06T04:30:44;0.60;;;0.50;;
76125;SDS011;65174;48.138;21.002;2023-08-06T04:33:46;0.50;;;0.47;;
76125;SDS011;65174;48.138;21.002;2023-08-06T04:36:50;0.60;;;0.50;;
76125;SDS011;65174;48.138;21.002;2023-08-06T04:39:52;0.85;;;0.57;;
76125;SDS011;65174;48.138;21.002;2023-08-06T04:42:54;0.33;;;0.30;;
76125;SDS011;65174;48.138;21.002;2023-08-06T04:45:57;0.52;;;0.50;;
76125;SDS011;65174;48.138;21.002;2023-08-06T04:48:59;1.92;;;0.50;;
76125;SDS011;65174;48.138;21.002;2023-08-06T04:52:01;0.75;;;0.65;;
76125;SDS011;65174;48.138;21.002;2023-08-06T04:55:03;0.50;;;0.38;;
76125;SDS011;65174;48.138;21.002;2023-08-06T04:58:08;1.73;;;0.83;;
76125;SDS011;65174;48.138;21.002;2023-08-06T05:01:10;0.47;;;0.38;;
76125;SDS011;65174;48.138;21.002;2023-08-06T05:04:12;0.70;;;0.47;;
76125;SDS011;65174;48.138;21.002;2023-08-06T05:07:14;0.52;;;0.50;;
76125;SDS011;65174;48.138;21.002;2023-08-06T05:10:16;0.98;;;0.90;;
76125;SDS011;65174;48.138;21.002;2023-08-06T05:13:18;1.73;;;0.60;;
76125;SDS011;65174;48.138;21.002;2023-08-06T05:16:20;0.80;;;0.70;;
76125;SDS011;65174;48.138;21.002;2023-08-06T05:19:22;0.65;;;0.63;;
76125;SDS011;65174;48.138;21.002;2023-08-06T05:22:24;4.45;;;1.08;;
76125;SDS011;65174;48.138;21.002;2023-08-06T05:25:26;2.40;;;1.98;;
76125;SDS011;65174;48.138;21.002;2023-08-06T05:28:28;1.00;;;0.77;;
76125;SDS011;65174;48.138;21.002;2023-08-06T05:31:30;1.10;;;1.00;;
76125;SDS011;65174;48.138;21.002;2023-08-06T05:34:32;1.65;;;0.75;;
76125;SDS011;65174;48.138;21.002;2023-08-06T05:37:34;0.70;;;0.60;;
76125;SDS011;65174;48.138;21.002;2023-08-06T05:40:36;0.93;;;0.70;;
76125;SDS011;65174;48.138;21.002;2023-08-06T05:43:38;1.03;;;0.63;;
76125;SDS011;65174;48.138;21.002;2023-08-06T05:46:40;1.23;;;1.13;;
76125;SDS011;65174;48.138;21.002;2023-08-06T05:49:42;2.72;;;1.30;;
76125;SDS011;65174;48.138;21.002;2023-08-06T05:52:43;1.25;;;0.95;;
76125;SDS011;65174;48.138;21.002;2023-08-06T05:55:45;1.40;;;1.20;;
76125;SDS011;65174;48.138;21.002;2023-08-06T05:58:48;1.57;;;1.07;;
76125;SDS011;65174;48.138;21.002;2023-08-06T06:01:52;1.67;;;1.00;;
76125;SDS011;65174;48.138;21.002;2023-08-06T06:04:55;2.30;;;1.13;;
76125;SDS011;65174;48.138;21.002;2023-08-06T06:07:57;1.63;;;1.08;;
76125;SDS011;65174;48.138;21.002;2023-08-06T06:10:59;2.40;;;1.63;;
76125;SDS011;65174;48.138;21.002;2023-08-06T06:14:01;1.47;;;1.27;;
76125;SDS011;65174;48.138;21.002;2023-08-06T06:17:03;1.48;;;1.10;;
76125;SDS011;65174;48.138;21.002;2023-08-06T06:20:05;1.38;;;1.27;;
76125;SDS011;65174;48.138;21.002;2023-08-06T06:23:07;3.03;;;1.20;;
76125;SDS011;65174;48.138;21.002;2023-08-06T06:26:09;2.63;;;1.42;;
76125;SDS011;65174;48.138;21.002;2023-08-06T06:29:11;1.37;;;1.03;;
76125;SDS011;65174;48.138;21.002;2023-08-06T06:32:13;1.95;;;1.50;;
76125;SDS011;65174;48.138;21.002;2023-08-06T06:35:15;2.08;;;1.48;;
76125;SDS011;65174;48.138;21.002;2023-08-06T06:38:17;1.70;;;1.20;;
76125;SDS011;65174;48.138;21.002;2023-08-06T06:41:19;1.80;;;1.33;;
76125;SDS011;65174;48.138;21.002;2023-08-06T06:44:21;2.03;;;1.53;;
76125;SDS011;65174;48.138;21.002;2023-08-06T06:47:23;1.50;;;1.40;;
76125;SDS011;65174;48.138;21.002;2023-08-06T06:50:25;2.45;;;1.80;;
76125;SDS011;65174;48.138;21.002;2023-08-06T06:53:28;1.73;;;1.58;;
76125;SDS011;65174;48.138;21.002;2023-08-06T06:56:30;1.30;;;1.20;;
76125;SDS011;65174;48.138;21.002;2023-08-06T06:59:32;1.57;;;1.33;;
76125;SDS011;65174;48.138;21.002;2023-08-06T07:02:34;2.28;;;1.35;;
76125;SDS011;65174;48.138;21.002;2023-08-06T07:05:36;1.40;;;1.30;;
76125;SDS011;65174;48.138;21.002;2023-08-06T07:08:38;3.20;;;1.50;;
76125;SDS011;65174;48.138;21.002;2023-08-06T07:11:40;1.80;;;1.63;;
76125;SDS011;65174;48.138;21.002;2023-08-06T07:14:45;3.00;;;1.50;;
76125;SDS011;65174;48.138;21.002;2023-08-06T07:17:47;1.40;;;1.23;;
76125;SDS011;65174;48.138;21.002;2023-08-06T07:20:52;1.42;;;1.30;;
76125;SDS011;65174;48.138;21.002;2023-08-06T07:23:55;1.27;;;1.08;;
76125;SDS011;65174;48.138;21.002;2023-08-06T07:26:57;2.15;;;1.90;;
76125;SDS011;65174;48.138;21.002;2023-08-06T07:29:59;1.03;;;0.90;;
76125;SDS011;65174;48.138;21.002;2023-08-06T07:33:01;2.05;;;1.50;;
76125;SDS011;65174;48.138;21.002;2023-08-06T07:36:10;2.05;;;1.40;;
76125;SDS011;65174;48.138;21.002;2023-08-06T07:39:13;1.60;;;1.25;;
76125;SDS011;65174;48.138;21.002;2023-08-06T07:42:15;1.10;;;1.00;;
76125;SDS011;65174;48.138;21.002;2023-08-06T07:45:17;1.47;;;0.97;;
76125;SDS011;65174;48.138;21.002;2023-08-06T07:48:20;1.70;;;1.40;;
76125;SDS011;65174;48.138;21.002;2023-08-06T07:51:22;1.38;;;1.23;;
76125;SDS011;65174;48.138;21.002;2023-08-06T07:54:24;1.45;;;1.30;;
76125;SDS011;65174;48.138;21.002;2023-08-06T07:57:26;1.55;;;1.20;;
76125;SDS011;65174;48.138;21.002;2023-08-06T08:00:28;1.50;;;1.40;;
76125;SDS011;65174;48.138;21.002;2023-08-06T08:03:30;1.27;;;1.10;;
76125;SDS011;65174;48.138;21.002;2023-08-06T08:06:32;1.20;;;1.10;;
76125;SDS011;65174;48.138;21.002;2023-08-06T08:09:35;1.10;;;1.00;;
76125;SDS011;65174;48.138;21.002;2023-08-06T08:12:37;1.08;;;0.98;;
76125;SDS011;65174;48.138;21.002;2023-08-06T08:15:39;1.40;;;1.10;;
76125;SDS011;65174;48.138;21.002;2023-08-06T08:18:41;1.40;;;1.20;;
76125;SDS011;65174;48.138;21.002;2023-08-06T08:21:43;1.90;;;1.42;;
76125;SDS011;65174;48.138;21.002;2023-08-06T08:24:45;1.30;;;1.20;;
76125;SDS011;65174;48.138;21.002;2023-08-06T08:27:47;1.60;;;1.40;;
76125;SDS011;65174;48.138;21.002;2023-08-06T08:30:49;1.23;;;1.03;;
76125;SDS011;65174;48.138;21.002;2023-08-06T08:33:51;2.65;;;1.83;;
76125;SDS011;65174;48.138;21.002;2023-08-06T08:36:56;3.08;;;1.20;;
76125;SDS011;65174;48.138;21.002;2023-08-06T08:39:58;0.88;;;0.70;;
76125;SDS011;65174;48.138;21.002;2023-08-06T08:43:02;1.08;;;0.82;;
76125;SDS011;65174;48.138;21.002;2023-08-06T08:46:05;1.53;;;0.97;;
76125;SDS011;65174;48.138;21.002;2023-08-06T08:49:10;1.35;;;0.73;;
76125;SDS011;65174;48.138;21.002;2023-08-06T08:52:13;0.90;;;0.80;;
76125;SDS011;65174;48.138;21.002;2023-08-06T08:55:18;1.75;;;1.20;;
76125;SDS011;65174;48.138;21.002;2023-08-06T08:58:22;1.15;;;1.00;;
76125;SDS011;65174;48.138;21.002;2023-08-06T09:01:25;0.87;;;0.80;;
76125;SDS011;65174;48.138;21.002;2023-08-06T09:04:30;0.80;;;0.80;;
76125;SDS011;65174;48.138;21.002;2023-08-06T09:07:37;1.10;;;1.00;;
76125;SDS011;65174;48.138;21.002;2023-08-06T09:10:43;1.95;;;1.10;;
76125;SDS011;65174;48.138;21.002;2023-08-06T09:13:46;1.13;;;0.82;;
76125;SDS011;65174;48.138;21.002;2023-08-06T09:16:49;0.83;;;0.73;;
76125;SDS011;65174;48.138;21.002;2023-08-06T09:19:51;1.20;;;1.10;;
76125;SDS011;65174;48.138;21.002;2023-08-06T09:22:53;1.20;;;1.10;;
76125;SDS011;65174;48.138;21.002;2023-08-06T09:25:55;1.35;;;1.00;;
76125;SDS011;65174;48.138;21.002;2023-08-06T09:28:58;1.08;;;0.98;;
76125;SDS011;65174;48.138;21.002;2023-08-06T09:32:01;1.30;;;0.80;;
76125;SDS011;65174;48.138;21.002;2023-08-06T09:35:03;1.50;;;1.40;;
76125;SDS011;65174;48.138;21.002;2023-08-06T09:38:07;1.63;;;1.35;;
76125;SDS011;65174;48.138;21.002;2023-08-06T09:41:10;2.08;;;1.42;;
76125;SDS011;65174;48.138;21.002;2023-08-06T09:47:17;2.33;;;1.20;;
76125;SDS011;65174;48.138;21.002;2023-08-06T09:50:19;1.08;;;0.98;;
76125;SDS011;65174;48.138;21.002;2023-08-06T09:53:22;1.90;;;1.40;;
76125;SDS011;65174;48.138;21.002;2023-08-06T09:56:24;1.70;;;1.05;;
76125;SDS011;65174;48.138;21.002;2023-08-06T09:59:28;1.40;;;1.30;;
76125;SDS011;65174;48.138;21.002;2023-08-06T10:02:30;1.10;;;0.73;;
76125;SDS011;65174;48.138;21.002;2023-08-06T10:05:34;2.40;;;1.23;;
76125;SDS011;65174;48.138;21.002;2023-08-06T10:08:37;0.95;;;0.90;;
76125;SDS011;65174;48.138;21.002;2023-08-06T10:11:39;1.63;;;1.00;;
76125;SDS011;65174;48.138;21.002;2023-08-06T10:14:42;1.20;;;0.70;;
76125;SDS011;65174;48.138;21.002;2023-08-06T10:17:45;1.10;;;1.00;;
76125;SDS011;65174;48.138;21.002;2023-08-06T10:20:52;1.10;;;0.80;;
76125;SDS011;65174;48.138;21.002;2023-08-06T10:23:55;1.02;;;0.80;;
76125;SDS011;65174;48.138;21.002;2023-08-06T10:26:58;1.30;;;1.00;;
76125;SDS011;65174;48.138;21.002;2023-08-06T10:30:44;1.45;;;1.10;;
76125;SDS011;65174;48.138;21.002;2023-08-06T10:33:43;1.30;;;1.13;;
76125;SDS011;65174;48.138;21.002;2023-08-06T10:36:49;2.20;;;1.58;;
76125;SDS011;65174;48.138;21.002;2023-08-06T10:39:51;2.70;;;1.98;;
76125;SDS011;65174;48.138;21.002;2023-08-06T10:42:53;3.30;;;2.25;;
76125;SDS011;65174;48.138;21.002;2023-08-06T10:45:56;3.72;;;2.40;;
76125;SDS011;65174;48.138;21.002;2023-08-06T10:48:59;5.20;;;3.10;;
76125;SDS011;65174;48.138;21.002;2023-08-06T10:52:02;3.92;;;3.13;;
76125;SDS011;65174;48.138;21.002;2023-08-06T10:55:04;4.32;;;3.10;;
76125;SDS011;65174;48.138;21.002;2023-08-06T10:58:07;4.13;;;2.85;;
76125;SDS011;65174;48.138;21.002;2023-08-06T11:01:09;3.10;;;2.50;;
76125;SDS011;65174;48.138;21.002;2023-08-06T11:04:12;3.50;;;2.87;;
76125;SDS011;65174;48.138;21.002;2023-08-06T11:07:17;3.28;;;2.42;;
76125;SDS011;65174;48.138;21.002;2023-08-06T11:10:22;4.07;;;2.75;;
76125;SDS011;65174;48.138;21.002;2023-08-06T11:13:24;5.70;;;3.08;;
76125;SDS011;65174;48.138;21.002;2023-08-06T11:16:28;3.38;;;2.60;;
76125;SDS011;65174;48.138;21.002;2023-08-06T11:19:30;3.10;;;2.60;;
76125;SDS011;65174;48.138;21.002;2023-08-06T11:22:32;3.20;;;2.90;;
76125;SDS011;65174;48.138;21.002;2023-08-06T11:25:45;4.97;;;3.70;;
76125;SDS011;65174;48.138;21.002;2023-08-06T11:28:47;3.65;;;3.15;;
76125;SDS011;65174;48.138;21.002;2023-08-06T11:31:50;3.95;;;3.03;;
76125;SDS011;65174;48.138;21.002;2023-08-06T11:34:52;3.53;;;2.87;;
76125;SDS011;65174;48.138;21.002;2023-08-06T11:37:56;4.18;;;3.30;;
76125;SDS011;65174;48.138;21.002;2023-08-06T11:40:58;4.18;;;3.50;;
76125;SDS011;65174;48.138;21.002;2023-08-06T11:44:00;4.35;;;3.25;;
76125;SDS011;65174;48.138;21.002;2023-08-06T11:47:04;3.67;;;3.05;;
76125;SDS011;65174;48.138;21.002;2023-08-06T11:50:07;4.23;;;3.00;;
76125;SDS011;65174;48.138;21.002;2023-08-06T11:53:11;4.55;;;3.08;;
76125;SDS011;65174;48.138;21.002;2023-08-06T11:56:14;3.92;;;3.35;;
76125;SDS011;65174;48.138;21.002;2023-08-06T11:59:16;4.20;;;3.17;;
76125;SDS011;65174;48.138;21.002;2023-08-06T12:02:21;6.22;;;3.22;;
76125;SDS011;65174;48.138;21.002;2023-08-06T12:05:29;4.30;;;3.27;;
76125;SDS011;65174;48.138;21.002;2023-08-06T12:08:32;4.85;;;2.78;;
76125;SDS011;65174;48.138;21.002;2023-08-06T12:11:34;3.13;;;2.38;;
76125;SDS011;65174;48.138;21.002;2023-08-06T12:14:36;2.63;;;2.03;;
76125;SDS011;65174;48.138;21.002;2023-08-06T12:17:38;3.53;;;2.30;;
76125;SDS011;65174;48.138;21.002;2023-08-06T12:20:40;1.60;;;1.30;;
76125;SDS011;65174;48.138;21.002;2023-08-06T12:23:42;1.88;;;1.63;;
76125;SDS011;65174;48.138;21.002;2023-08-06T12:26:44;1.15;;;1.13;;
76125;SDS011;65174;48.138;21.002;2023-08-06T12:29:49;1.50;;;1.40;;
76125;SDS011;65174;48.138;21.002;2023-08-06T12:32:51;1.25;;;1.15;;
76125;SDS011;65174;48.138;21.002;2023-08-06T12:35:53;1.07;;;0.97;;
76125;SDS011;65174;48.138;21.002;2023-08-06T12:38:56;1.30;;;1.20;;
76125;SDS011;65174;48.138;21.002;2023-08-06T12:41:59;1.40;;;1.30;;
76125;SDS011;65174;48.138;21.002;2023-08-06T12:45:10;1.52;;;1.42;;
76125;SDS011;65174;48.138;21.002;2023-08-06T12:48:12;1.50;;;1.40;;
76125;SDS011;65174;48.138;21.002;2023-08-06T12:51:15;1.60;;;1.50;;
76125;SDS011;65174;48.138;21.002;2023-08-06T12:54:17;1.75;;;1.60;;
76125;SDS011;65174;48.138;21.002;2023-08-06T12:57:19;1.73;;;1.63;;
76125;SDS011;65174;48.138;21.002;2023-08-06T13:00:21;1.20;;;1.10;;
76125;SDS011;65174;48.138;21.002;2023-08-06T13:03:23;1.30;;;1.20;;
76125;SDS011;65174;48.138;21.002;2023-08-06T13:06:25;1.17;;;1.07;;
76125;SDS011;65174;48.138;21.002;2023-08-06T13:09:27;0.98;;;0.98;;
76125;SDS011;65174;48.138;21.002;2023-08-06T13:12:33;1.10;;;1.00;;
76125;SDS011;65174;48.138;21.002;2023-08-06T13:15:35;2.47;;;1.10;;
76125;SDS011;65174;48.138;21.002;2023-08-06T13:18:37;1.30;;;1.20;;
76125;SDS011;65174;48.138;21.002;2023-08-06T13:24:59;0.88;;;0.88;;
76125;SDS011;65174;48.138;21.002;2023-08-06T13:28:02;1.98;;;1.10;;
76125;SDS011;65174;48.138;21.002;2023-08-06T13:31:05;1.30;;;1.20;;
76125;SDS011;65174;48.138;21.002;2023-08-06T13:34:07;1.27;;;1.17;;
76125;SDS011;65174;48.138;21.002;2023-08-06T13:37:09;0.83;;;0.60;;
76125;SDS011;65174;48.138;21.002;2023-08-06T13:40:12;0.70;;;0.70;;
76125;SDS011;65174;48.138;21.002;2023-08-06T13:43:14;0.77;;;0.70;;
76125;SDS011;65174;48.138;21.002;2023-08-06T13:46:18;0.90;;;0.70;;
76125;SDS011;65174;48.138;21.002;2023-08-06T13:49:22;0.60;;;0.60;;
76125;SDS011;65174;48.138;21.002;2023-08-06T13:52:25;1.10;;;1.00;;
76125;SDS011;65174;48.138;21.002;2023-08-06T13:55:28;1.15;;;0.80;;
76125;SDS011;65174;48.138;21.002;2023-08-06T13:58:29;0.70;;;0.70;;
76125;SDS011;65174;48.138;21.002;2023-08-06T14:01:32;0.93;;;0.70;;
76125;SDS011;65174;48.138;21.002;2023-08-06T14:04:37;0.98;;;0.93;;
76125;SDS011;65174;48.138;21.002;2023-08-06T14:07:39;0.50;;;0.40;;
76125;SDS011;65174;48.138;21.002;2023-08-06T14:10:41;0.77;;;0.70;;
76125;SDS011;65174;48.138;21.002;2023-08-06T14:13:43;0.55;;;0.50;;
76125;SDS011;65174;48.138;21.002;2023-08-06T14:16:45;0.50;;;0.40;;
76125;SDS011;65174;48.138;21.002;2023-08-06T14:19:47;0.40;;;0.40;;
76125;SDS011;65174;48.138;21.002;2023-08-06T14:22:48;0.67;;;0.60;;
76125;SDS011;65174;48.138;21.002;2023-08-06T14:25:50;0.40;;;0.30;;
76125;SDS011;65174;48.138;21.002;2023-08-06T14:28:52;0.30;;;0.30;;
76125;SDS011;65174;48.138;21.002;2023-08-06T14:31:56;0.43;;;0.43;;
76125;SDS011;65174;48.138;21.002;2023-08-06T14:34:58;0.40;;;0.40;;
76125;SDS011;65174;48.138;21.002;2023-08-06T14:38:00;0.40;;;0.40;;
76125;SDS011;65174;48.138;21.002;2023-08-06T14:41:04;0.32;;;0.32;;
76125;SDS011;65174;48.138;21.002;2023-08-06T14:44:07;0.70;;;0.40;;
76125;SDS011;65174;48.138;21.002;2023-08-06T14:47:10;0.30;;;0.30;;
76125;SDS011;65174;48.138;21.002;2023-08-06T14:50:12;0.40;;;0.40;;
76125;SDS011;65174;48.138;21.002;2023-08-06T14:53:13;0.30;;;0.30;;
76125;SDS011;65174;48.138;21.002;2023-08-06T14:56:16;0.55;;;0.43;;
76125;SDS011;65174;48.138;21.002;2023-08-06T14:59:18;1.15;;;0.93;;
76125;SDS011;65174;48.138;21.002;2023-08-06T15:02:20;1.75;;;1.58;;
76125;SDS011;65174;48.138;21.002;2023-08-06T15:05:22;1.83;;;1.60;;
76125;SDS011;65174;48.138;21.002;2023-08-06T15:08:24;1.80;;;1.47;;
76125;SDS011;65174;48.138;21.002;2023-08-06T15:11:26;1.85;;;1.60;;
76125;SDS011;65174;48.138;21.002;2023-08-06T15:14:28;1.23;;;1.13;;
76125;SDS011;65174;48.138;21.002;2023-08-06T15:17:30;1.15;;;1.02;;
76125;SDS011;65174;48.138;21.002;2023-08-06T15:20:32;1.60;;;1.20;;
76125;SDS011;65174;48.138;21.002;2023-08-06T15:23:34;1.27;;;1.10;;
76125;SDS011;65174;48.138;21.002;2023-08-06T15:26:36;2.45;;;1.70;;
76125;SDS011;65174;48.138;21.002;2023-08-06T15:29:38;3.03;;;2.00;;
76125;SDS011;65174;48.138;21.002;2023-08-06T15:32:40;4.22;;;2.85;;
76125;SDS011;65174;48.138;21.002;2023-08-06T15:35:46;3.83;;;2.88;;
76125;SDS011;65174;48.138;21.002;2023-08-06T15:38:49;4.70;;;2.67;;
76125;SDS011;65174;48.138;21.002;2023-08-06T15:41:51;3.25;;;2.35;;
76125;SDS011;65174;48.138;21.002;2023-08-06T15:44:53;2.35;;;1.65;;
76125;SDS011;65174;48.138;21.002;2023-08-06T15:47:55;2.60;;;1.83;;
76125;SDS011;65174;48.138;21.002;2023-08-06T15:50:58;1.77;;;1.65;;
76125;SDS011;65174;48.138;21.002;2023-08-06T15:54:00;2.57;;;1.47;;
76125;SDS011;65174;48.138;21.002;2023-08-06T15:57:02;1.73;;;1.35;;
76125;SDS011;65174;48.138;21.002;2023-08-06T16:00:05;1.52;;;1.13;;
76125;SDS011;65174;48.138;21.002;2023-08-06T16:03:13;1.00;;;0.82;;
76125;SDS011;65174;48.138;21.002;2023-08-06T16:06:15;0.90;;;0.73;;
76125;SDS011;65174;48.138;21.002;2023-08-06T16:09:17;1.50;;;1.10;;
76125;SDS011;65174;48.138;21.002;2023-08-06T16:12:19;0.77;;;0.52;;
76125;SDS011;65174;48.138;21.002;2023-08-06T16:15:22;0.88;;;0.77;;
76125;SDS011;65174;48.138;21.002;2023-08-06T16:18:23;0.60;;;0.50;;
76125;SDS011;65174;48.138;21.002;2023-08-06T16:21:25;0.60;;;0.50;;
76125;SDS011;65174;48.138;21.002;2023-08-06T16:24:28;0.60;;;0.50;;
76125;SDS011;65174;48.138;21.002;2023-08-06T16:27:29;0.50;;;0.40;;
76125;SDS011;65174;48.138;21.002;2023-08-06T16:30:31;0.30;;;0.30;;
76125;SDS011;65174;48.138;21.002;2023-08-06T16:33:33;1.55;;;0.35;;
76125;SDS011;65174;48.138;21.002;2023-08-06T16:36:35;0.80;;;0.50;;
76125;SDS011;65174;48.138;21.002;2023-08-06T16:39:37;0.30;;;0.30;;
76125;SDS011;65174;48.138;21.002;2023-08-06T16:42:39;0.50;;;0.50;;
76125;SDS011;65174;48.138;21.002;2023-08-06T16:45:41;0.50;;;0.50;;
76125;SDS011;65174;48.138;21.002;2023-08-06T16:48:43;0.63;;;0.47;;
76125;SDS011;65174;48.138;21.002;2023-08-06T16:51:45;0.70;;;0.68;;
76125;SDS011;65174;48.138;21.002;2023-08-06T16:54:48;0.60;;;0.60;;
76125;SDS011;65174;48.138;21.002;2023-08-06T16:57:50;0.40;;;0.40;;
76125;SDS011;65174;48.138;21.002;2023-08-06T17:00:54;0.90;;;0.40;;
76125;SDS011;65174;48.138;21.002;2023-08-06T17:04:05;0.55;;;0.55;;
76125;SDS011;65174;48.138;21.002;2023-08-06T17:07:06;0.45;;;0.45;;
76125;SDS011;65174;48.138;21.002;2023-08-06T17:10:08;0.53;;;0.50;;
76125;SDS011;65174;48.138;21.002;2023-08-06T17:13:11;0.50;;;0.40;;
76125;SDS011;65174;48.138;21.002;2023-08-06T17:16:16;0.38;;;0.35;;
76125;SDS011;65174;48.138;21.002;2023-08-06T17:19:18;0.60;;;0.50;;
76125;SDS011;65174;48.138;21.002;2023-08-06T17:22:20;0.45;;;0.40;;
76125;SDS011;65174;48.138;21.002;2023-08-06T17:25:23;0.30;;;0.30;;
76125;SDS011;65174;48.138;21.002;2023-08-06T17:28:25;0.50;;;0.40;;
76125;SDS011;65174;48.138;21.002;2023-08-06T17:31:27;0.40;;;0.40;;
76125;SDS011;65174;48.138;21.002;2023-08-06T17:34:29;0.50;;;0.50;;
76125;SDS011;65174;48.138;21.002;2023-08-06T17:37:31;0.65;;;0.47;;
76125;SDS011;65174;48.138;21.002;2023-08-06T17:40:33;0.30;;;0.30;;
76125;SDS011;65174;48.138;21.002;2023-08-06T17:43:35;1.13;;;0.40;;
76125;SDS011;65174;48.138;21.002;2023-08-06T17:46:37;1.80;;;0.60;;
76125;SDS011;65174;48.138;21.002;2023-08-06T17:49:39;0.35;;;0.30;;
76125;SDS011;65174;48.138;21.002;2023-08-06T17:52:41;0.32;;;0.32;;
76125;SDS011;65174;48.138;21.002;2023-08-06T17:55:43;0.30;;;0.30;;
76125;SDS011;65174;48.138;21.002;2023-08-06T17:58:45;0.50;;;0.50;;
76125;SDS011;65174;48.138;21.002;2023-08-06T18:01:46;0.30;;;0.30;;
76125;SDS011;65174;48.138;21.002;2023-08-06T18:04:50;0.50;;;0.40;;
76125;SDS011;65174;48.138;21.002;2023-08-06T18:07:52;0.52;;;0.40;;
76125;SDS011;65174;48.138;21.002;2023-08-06T18:10:54;0.80;;;0.50;;
76125;SDS011;65174;48.138;21.002;2023-08-06T18:13:56;0.38;;;0.38;;
76125;SDS011;65174;48.138;21.002;2023-08-06T18:16:58;0.47;;;0.40;;
76125;SDS011;65174;48.138;21.002;2023-08-06T18:20:00;0.60;;;0.57;;
76125;SDS011;65174;48.138;21.002;2023-08-06T18:23:02;0.40;;;0.40;;
76125;SDS011;65174;48.138;21.002;2023-08-06T18:26:06;0.60;;;0.60;;